Terminal Aerodrome Forecast
Issued by NWS

Home | Current Version | Previous Version | Text Only | Print | Product List | Glossary On
Versions: 1 2 3 4 5 6 7 8 9 10 11 12 13 14 15 16 17 18 19 20 21 22 23
203
FTUS41 KCAR 180526
TAFPQI
TAF
KPQI 180526Z 1806/1906 31010G18KT P6SM BKN025
     FM180900 32009KT P6SM FEW025 SCT250
     FM190000 14005KT P6SM BKN030 OVC150
     FM190400 13007KT P6SM VCSH BKN025 OVC090=

USA.gov is the U.S. government's official web portal to all federal, state and local government web resources and services.